sensor_id;sensor_type;location;lat;lon;timestamp;temperature;humidity
73643;DHT22;61938;48.652;9.292;2022-07-29T00:00:04;18.40;99.90
73643;DHT22;61938;48.652;9.292;2022-07-29T00:02:30;18.40;99.90
73643;DHT22;61938;48.652;9.292;2022-07-29T00:04:57;18.40;99.90
73643;DHT22;61938;48.652;9.292;2022-07-29T00:07:23;18.40;99.90
73643;DHT22;61938;48.652;9.292;2022-07-29T00:09:49;18.40;99.90
73643;DHT22;61938;48.652;9.292;2022-07-29T00:12:15;18.40;99.90
73643;DHT22;61938;48.652;9.292;2022-07-29T00:14:41;18.40;99.90
73643;DHT22;61938;48.652;9.292;2022-07-29T00:17:07;18.40;99.90
73643;DHT22;61938;48.652;9.292;2022-07-29T00:19:33;18.50;99.90
73643;DHT22;61938;48.652;9.292;2022-07-29T00:22:00;18.40;99.90
73643;DHT22;61938;48.652;9.292;2022-07-29T00:24:26;18.50;99.90
73643;DHT22;61938;48.652;9.292;2022-07-29T00:26:52;18.30;99.90
73643;DHT22;61938;48.652;9.292;2022-07-29T00:29:18;18.30;99.90
73643;DHT22;61938;48.652;9.292;2022-07-29T00:31:44;18.40;99.90
73643;DHT22;61938;48.652;9.292;2022-07-29T00:34:10;18.30;99.90
73643;DHT22;61938;48.652;9.292;2022-07-29T00:36:56;18.40;99.90
73643;DHT22;61938;48.652;9.292;2022-07-29T00:39:40;18.40;99.90
73643;DHT22;61938;48.652;9.292;2022-07-29T00:42:06;18.30;99.90
73643;DHT22;61938;48.652;9.292;2022-07-29T00:44:37;18.30;99.90
73643;DHT22;61938;48.652;9.292;2022-07-29T00:47:03;18.30;99.90
73643;DHT22;61938;48.652;9.292;2022-07-29T00:49:29;18.30;99.90
73643;DHT22;61938;48.652;9.292;2022-07-29T00:51:55;18.30;99.90
73643;DHT22;61938;48.652;9.292;2022-07-29T00:54:22;18.30;99.90
73643;DHT22;61938;48.652;9.292;2022-07-29T00:56:48;18.20;99.90
73643;DHT22;61938;48.652;9.292;2022-07-29T00:59:14;18.20;99.90
73643;DHT22;61938;48.652;9.292;2022-07-29T01:01:40;18.10;99.90
73643;DHT22;61938;48.652;9.292;2022-07-29T01:04:09;18.10;99.90
73643;DHT22;61938;48.652;9.292;2022-07-29T01:06:35;18.00;99.90
73643;DHT22;61938;48.652;9.292;2022-07-29T01:09:01;17.90;99.90
73643;DHT22;61938;48.652;9.292;2022-07-29T01:11:27;17.90;99.90
73643;DHT22;61938;48.652;9.292;2022-07-29T01:13:53;17.90;99.90
73643;DHT22;61938;48.652;9.292;2022-07-29T01:16:31;18.00;99.90
73643;DHT22;61938;48.652;9.292;2022-07-29T01:19:07;17.90;99.90
73643;DHT22;61938;48.652;9.292;2022-07-29T01:21:50;17.90;99.90
73643;DHT22;61938;48.652;9.292;2022-07-29T01:27:32;17.90;99.90
73643;DHT22;61938;48.652;9.292;2022-07-29T01:30:00;17.90;99.90
73643;DHT22;61938;48.652;9.292;2022-07-29T01:32:29;17.90;99.90
73643;DHT22;61938;48.652;9.292;2022-07-29T01:35:06;17.90;99.90
73643;DHT22;61938;48.652;9.292;2022-07-29T01:40:24;18.00;99.90
73643;DHT22;61938;48.652;9.292;2022-07-29T01:42:57;17.90;99.90
73643;DHT22;61938;48.652;9.292;2022-07-29T01:45:28;17.90;99.90
73643;DHT22;61938;48.652;9.292;2022-07-29T01:48:05;17.90;99.90
73643;DHT22;61938;48.652;9.292;2022-07-29T01:51:14;17.90;99.90
73643;DHT22;61938;48.652;9.292;2022-07-29T01:53:44;18.00;99.90
73643;DHT22;61938;48.652;9.292;2022-07-29T01:56:13;17.90;99.90
73643;DHT22;61938;48.652;9.292;2022-07-29T01:58:41;17.80;99.90
73643;DHT22;61938;48.652;9.292;2022-07-29T02:01:09;17.80;99.90
73643;DHT22;61938;48.652;9.292;2022-07-29T02:03:38;17.70;99.90
73643;DHT22;61938;48.652;9.292;2022-07-29T02:06:05;17.50;99.90
73643;DHT22;61938;48.652;9.292;2022-07-29T02:08:33;17.50;99.90
73643;DHT22;61938;48.652;9.292;2022-07-29T02:11:00;17.40;99.90
73643;DHT22;61938;48.652;9.292;2022-07-29T02:13:28;17.40;99.90
73643;DHT22;61938;48.652;9.292;2022-07-29T02:15:56;17.30;99.90
73643;DHT22;61938;48.652;9.292;2022-07-29T02:18:23;17.30;99.90
73643;DHT22;61938;48.652;9.292;2022-07-29T02:20:53;17.20;99.90
73643;DHT22;61938;48.652;9.292;2022-07-29T02:23:22;17.20;99.90
73643;DHT22;61938;48.652;9.292;2022-07-29T02:25:50;17.20;99.90
73643;DHT22;61938;48.652;9.292;2022-07-29T02:28:17;17.20;99.90
73643;DHT22;61938;48.652;9.292;2022-07-29T02:30:45;17.20;99.90
73643;DHT22;61938;48.652;9.292;2022-07-29T02:33:13;17.10;99.90
73643;DHT22;61938;48.652;9.292;2022-07-29T02:35:41;17.10;99.90
73643;DHT22;61938;48.652;9.292;2022-07-29T02:38:10;17.00;99.90
73643;DHT22;61938;48.652;9.292;2022-07-29T02:40:56;17.00;99.90
73643;DHT22;61938;48.652;9.292;2022-07-29T02:43:24;16.90;99.90
73643;DHT22;61938;48.652;9.292;2022-07-29T02:45:53;17.00;99.90
73643;DHT22;61938;48.652;9.292;2022-07-29T02:48:27;16.90;99.90
73643;DHT22;61938;48.652;9.292;2022-07-29T02:51:06;17.00;99.90
73643;DHT22;61938;48.652;9.292;2022-07-29T02:53:33;17.00;99.90
73643;DHT22;61938;48.652;9.292;2022-07-29T02:56:06;17.00;99.90
73643;DHT22;61938;48.652;9.292;2022-07-29T02:59:00;17.00;99.90
73643;DHT22;61938;48.652;9.292;2022-07-29T03:01:31;17.00;99.90
73643;DHT22;61938;48.652;9.292;2022-07-29T03:04:01;16.90;99.90
73643;DHT22;61938;48.652;9.292;2022-07-29T03:06:28;16.90;99.90
73643;DHT22;61938;48.652;9.292;2022-07-29T03:08:55;16.90;99.90
73643;DHT22;61938;48.652;9.292;2022-07-29T03:11:23;16.80;99.90
73643;DHT22;61938;48.652;9.292;2022-07-29T03:13:49;16.80;99.90
73643;DHT22;61938;48.652;9.292;2022-07-29T03:16:15;16.80;99.90
73643;DHT22;61938;48.652;9.292;2022-07-29T03:18:41;16.80;99.90
73643;DHT22;61938;48.652;9.292;2022-07-29T03:21:08;16.90;99.90
73643;DHT22;61938;48.652;9.292;2022-07-29T03:23:34;16.80;99.90
73643;DHT22;61938;48.652;9.292;2022-07-29T03:25:59;16.80;99.90
73643;DHT22;61938;48.652;9.292;2022-07-29T03:28:26;16.80;99.90
73643;DHT22;61938;48.652;9.292;2022-07-29T03:30:53;16.80;99.90
73643;DHT22;61938;48.652;9.292;2022-07-29T03:33:19;16.80;99.90
73643;DHT22;61938;48.652;9.292;2022-07-29T03:35:45;16.70;99.90
73643;DHT22;61938;48.652;9.292;2022-07-29T03:38:11;16.70;99.90
73643;DHT22;61938;48.652;9.292;2022-07-29T03:40:53;16.70;99.90
73643;DHT22;61938;48.652;9.292;2022-07-29T03:43:20;16.70;99.90
73643;DHT22;61938;48.652;9.292;2022-07-29T03:45:52;16.60;99.90
73643;DHT22;61938;48.652;9.292;2022-07-29T03:48:21;16.60;99.90
73643;DHT22;61938;48.652;9.292;2022-07-29T03:50:48;16.60;99.90
73643;DHT22;61938;48.652;9.292;2022-07-29T03:53:14;16.60;99.90
73643;DHT22;61938;48.652;9.292;2022-07-29T03:55:43;16.60;99.90
73643;DHT22;61938;48.652;9.292;2022-07-29T03:58:10;16.60;99.90
73643;DHT22;61938;48.652;9.292;2022-07-29T04:00:38;16.60;99.90
73643;DHT22;61938;48.652;9.292;2022-07-29T04:03:04;16.60;99.90
73643;DHT22;61938;48.652;9.292;2022-07-29T04:05:30;16.60;99.90
73643;DHT22;61938;48.652;9.292;2022-07-29T04:07:56;16.60;99.90
73643;DHT22;61938;48.652;9.292;2022-07-29T04:10:22;16.60;99.90
73643;DHT22;61938;48.652;9.292;2022-07-29T04:12:50;16.50;99.90
73643;DHT22;61938;48.652;9.292;2022-07-29T04:15:16;16.50;99.90
73643;DHT22;61938;48.652;9.292;2022-07-29T04:17:42;16.50;99.90
73643;DHT22;61938;48.652;9.292;2022-07-29T04:20:09;16.50;99.90
73643;DHT22;61938;48.652;9.292;2022-07-29T04:22:35;16.40;99.90
73643;DHT22;61938;48.652;9.292;2022-07-29T04:25:00;16.40;99.90
73643;DHT22;61938;48.652;9.292;2022-07-29T04:27:26;16.40;99.90
73643;DHT22;61938;48.652;9.292;2022-07-29T04:29:52;16.50;99.90
73643;DHT22;61938;48.652;9.292;2022-07-29T04:32:17;16.50;99.90
73643;DHT22;61938;48.652;9.292;2022-07-29T04:34:43;16.50;99.90
73643;DHT22;61938;48.652;9.292;2022-07-29T04:37:11;16.50;99.90
73643;DHT22;61938;48.652;9.292;2022-07-29T04:39:38;16.60;99.90
73643;DHT22;61938;48.652;9.292;2022-07-29T04:42:03;16.70;99.90
73643;DHT22;61938;48.652;9.292;2022-07-29T04:44:29;16.70;99.90
73643;DHT22;61938;48.652;9.292;2022-07-29T04:46:56;16.80;99.90
73643;DHT22;61938;48.652;9.292;2022-07-29T04:49:22;16.90;99.90
73643;DHT22;61938;48.652;9.292;2022-07-29T04:51:47;16.90;99.90
73643;DHT22;61938;48.652;9.292;2022-07-29T04:54:13;16.90;99.90
73643;DHT22;61938;48.652;9.292;2022-07-29T04:56:39;16.90;99.90
73643;DHT22;61938;48.652;9.292;2022-07-29T04:59:05;16.90;99.90
73643;DHT22;61938;48.652;9.292;2022-07-29T05:01:30;16.90;99.90
73643;DHT22;61938;48.652;9.292;2022-07-29T05:03:56;16.90;99.90
73643;DHT22;61938;48.652;9.292;2022-07-29T05:06:22;16.90;99.90
73643;DHT22;61938;48.652;9.292;2022-07-29T05:08:47;17.00;99.90
73643;DHT22;61938;48.652;9.292;2022-07-29T05:11:13;17.00;99.90
73643;DHT22;61938;48.652;9.292;2022-07-29T05:13:39;17.10;99.90
73643;DHT22;61938;48.652;9.292;2022-07-29T05:16:05;17.20;99.90
73643;DHT22;61938;48.652;9.292;2022-07-29T05:18:31;17.30;99.90
73643;DHT22;61938;48.652;9.292;2022-07-29T05:20:57;17.40;99.90
73643;DHT22;61938;48.652;9.292;2022-07-29T05:23:22;17.40;99.90
73643;DHT22;61938;48.652;9.292;2022-07-29T05:25:48;17.40;99.90
73643;DHT22;61938;48.652;9.292;2022-07-29T05:28:15;17.60;99.90
73643;DHT22;61938;48.652;9.292;2022-07-29T05:30:42;17.70;99.90
73643;DHT22;61938;48.652;9.292;2022-07-29T05:33:09;17.70;99.90
73643;DHT22;61938;48.652;9.292;2022-07-29T05:35:36;17.70;99.90
73643;DHT22;61938;48.652;9.292;2022-07-29T05:38:03;17.90;99.90
73643;DHT22;61938;48.652;9.292;2022-07-29T05:40:29;17.90;99.90
73643;DHT22;61938;48.652;9.292;2022-07-29T05:42:55;18.00;99.90
73643;DHT22;61938;48.652;9.292;2022-07-29T05:45:21;18.00;99.90
73643;DHT22;61938;48.652;9.292;2022-07-29T05:47:47;18.00;99.90
73643;DHT22;61938;48.652;9.292;2022-07-29T05:50:13;18.00;99.90
73643;DHT22;61938;48.652;9.292;2022-07-29T05:52:39;18.00;99.90
73643;DHT22;61938;48.652;9.292;2022-07-29T05:55:05;18.10;99.90
73643;DHT22;61938;48.652;9.292;2022-07-29T05:57:31;18.30;99.90
73643;DHT22;61938;48.652;9.292;2022-07-29T05:59:57;18.50;99.90
73643;DHT22;61938;48.652;9.292;2022-07-29T06:02:23;18.60;99.90
73643;DHT22;61938;48.652;9.292;2022-07-29T06:04:49;18.70;99.90
73643;DHT22;61938;48.652;9.292;2022-07-29T06:07:15;18.80;99.90
73643;DHT22;61938;48.652;9.292;2022-07-29T06:09:42;18.80;99.90
73643;DHT22;61938;48.652;9.292;2022-07-29T06:12:08;18.90;99.90
73643;DHT22;61938;48.652;9.292;2022-07-29T06:14:35;18.90;99.90
73643;DHT22;61938;48.652;9.292;2022-07-29T06:17:01;18.80;99.90
73643;DHT22;61938;48.652;9.292;2022-07-29T06:19:27;18.70;99.90
73643;DHT22;61938;48.652;9.292;2022-07-29T06:21:53;18.70;99.90
73643;DHT22;61938;48.652;9.292;2022-07-29T06:24:19;18.70;99.90
73643;DHT22;61938;48.652;9.292;2022-07-29T06:26:45;18.70;99.90
73643;DHT22;61938;48.652;9.292;2022-07-29T06:29:11;18.70;99.90
73643;DHT22;61938;48.652;9.292;2022-07-29T06:31:37;18.80;99.90
73643;DHT22;61938;48.652;9.292;2022-07-29T06:34:03;18.90;99.90
73643;DHT22;61938;48.652;9.292;2022-07-29T06:36:29;19.00;99.90
73643;DHT22;61938;48.652;9.292;2022-07-29T06:38:55;19.00;99.90
73643;DHT22;61938;48.652;9.292;2022-07-29T06:41:21;19.10;99.90
73643;DHT22;61938;48.652;9.292;2022-07-29T06:43:48;19.20;99.90
73643;DHT22;61938;48.652;9.292;2022-07-29T06:46:17;19.30;99.90
73643;DHT22;61938;48.652;9.292;2022-07-29T06:48:43;19.30;99.90
73643;DHT22;61938;48.652;9.292;2022-07-29T06:51:10;19.40;99.90
73643;DHT22;61938;48.652;9.292;2022-07-29T06:53:37;19.60;99.90
73643;DHT22;61938;48.652;9.292;2022-07-29T06:56:04;19.80;99.90
73643;DHT22;61938;48.652;9.292;2022-07-29T06:58:31;19.90;99.90
73643;DHT22;61938;48.652;9.292;2022-07-29T07:01:03;20.10;99.90
73643;DHT22;61938;48.652;9.292;2022-07-29T07:03:29;20.20;99.90
73643;DHT22;61938;48.652;9.292;2022-07-29T07:05:56;20.30;99.90
73643;DHT22;61938;48.652;9.292;2022-07-29T07:08:22;20.50;99.90
73643;DHT22;61938;48.652;9.292;2022-07-29T07:10:49;20.70;99.90
73643;DHT22;61938;48.652;9.292;2022-07-29T07:13:15;20.80;99.90
73643;DHT22;61938;48.652;9.292;2022-07-29T07:15:43;20.80;99.90
73643;DHT22;61938;48.652;9.292;2022-07-29T07:18:09;20.80;99.90
73643;DHT22;61938;48.652;9.292;2022-07-29T07:20:36;20.70;99.90
73643;DHT22;61938;48.652;9.292;2022-07-29T07:23:02;20.70;99.90
73643;DHT22;61938;48.652;9.292;2022-07-29T07:25:28;20.80;99.90
73643;DHT22;61938;48.652;9.292;2022-07-29T07:27:53;20.80;99.90
73643;DHT22;61938;48.652;9.292;2022-07-29T07:30:19;20.90;99.90
73643;DHT22;61938;48.652;9.292;2022-07-29T07:32:45;20.90;99.90
73643;DHT22;61938;48.652;9.292;2022-07-29T07:35:11;20.80;99.90
73643;DHT22;61938;48.652;9.292;2022-07-29T07:37:38;20.80;99.90
73643;DHT22;61938;48.652;9.292;2022-07-29T07:40:06;20.80;99.90
73643;DHT22;61938;48.652;9.292;2022-07-29T07:42:32;20.70;99.90
73643;DHT22;61938;48.652;9.292;2022-07-29T07:44:58;20.80;99.90
73643;DHT22;61938;48.652;9.292;2022-07-29T07:47:24;20.90;99.90
73643;DHT22;61938;48.652;9.292;2022-07-29T07:49:51;21.10;99.90
73643;DHT22;61938;48.652;9.292;2022-07-29T07:52:19;21.30;99.90
73643;DHT22;61938;48.652;9.292;2022-07-29T07:54:46;21.40;99.90
73643;DHT22;61938;48.652;9.292;2022-07-29T07:57:12;21.50;99.90
73643;DHT22;61938;48.652;9.292;2022-07-29T07:59:38;21.50;99.90
73643;DHT22;61938;48.652;9.292;2022-07-29T08:02:05;21.50;99.90
73643;DHT22;61938;48.652;9.292;2022-07-29T08:04:31;21.60;99.90
73643;DHT22;61938;48.652;9.292;2022-07-29T08:06:57;21.70;99.90
73643;DHT22;61938;48.652;9.292;2022-07-29T08:09:24;21.80;99.90
73643;DHT22;61938;48.652;9.292;2022-07-29T08:11:51;21.90;99.90
73643;DHT22;61938;48.652;9.292;2022-07-29T08:14:17;22.00;99.90
73643;DHT22;61938;48.652;9.292;2022-07-29T08:16:43;22.20;99.90
73643;DHT22;61938;48.652;9.292;2022-07-29T08:19:09;22.30;99.90
73643;DHT22;61938;48.652;9.292;2022-07-29T08:21:35;22.40;99.90
73643;DHT22;61938;48.652;9.292;2022-07-29T08:24:01;22.40;99.90
73643;DHT22;61938;48.652;9.292;2022-07-29T08:26:46;22.50;99.90
73643;DHT22;61938;48.652;9.292;2022-07-29T08:29:12;22.60;99.90
73643;DHT22;61938;48.652;9.292;2022-07-29T08:31:39;22.60;99.90
73643;DHT22;61938;48.652;9.292;2022-07-29T08:34:05;22.60;99.90
73643;DHT22;61938;48.652;9.292;2022-07-29T08:36:32;22.70;99.90
73643;DHT22;61938;48.652;9.292;2022-07-29T08:38:58;22.90;99.90
73643;DHT22;61938;48.652;9.292;2022-07-29T08:41:25;22.90;99.90
73643;DHT22;61938;48.652;9.292;2022-07-29T08:43:51;22.90;99.90
73643;DHT22;61938;48.652;9.292;2022-07-29T08:46:18;22.90;99.90
73643;DHT22;61938;48.652;9.292;2022-07-29T08:48:44;23.00;99.90
73643;DHT22;61938;48.652;9.292;2022-07-29T08:51:18;22.90;99.90
73643;DHT22;61938;48.652;9.292;2022-07-29T08:53:47;23.10;99.90
73643;DHT22;61938;48.652;9.292;2022-07-29T08:56:17;23.20;99.90
73643;DHT22;61938;48.652;9.292;2022-07-29T08:58:47;23.40;99.90
73643;DHT22;61938;48.652;9.292;2022-07-29T09:01:22;23.50;99.90
73643;DHT22;61938;48.652;9.292;2022-07-29T09:03:49;23.70;99.90
73643;DHT22;61938;48.652;9.292;2022-07-29T09:06:17;23.60;99.90
73643;DHT22;61938;48.652;9.292;2022-07-29T09:08:44;23.70;99.90
73643;DHT22;61938;48.652;9.292;2022-07-29T09:11:11;23.80;99.90
73643;DHT22;61938;48.652;9.292;2022-07-29T09:13:37;23.90;99.90
73643;DHT22;61938;48.652;9.292;2022-07-29T09:16:04;24.00;99.90
73643;DHT22;61938;48.652;9.292;2022-07-29T09:18:38;24.20;99.90
73643;DHT22;61938;48.652;9.292;2022-07-29T09:21:06;24.10;99.90
73643;DHT22;61938;48.652;9.292;2022-07-29T09:24:11;24.20;99.90
73643;DHT22;61938;48.652;9.292;2022-07-29T09:26:43;24.20;99.90
73643;DHT22;61938;48.652;9.292;2022-07-29T09:29:14;24.30;99.90
73643;DHT22;61938;48.652;9.292;2022-07-29T09:31:48;24.40;99.90
73643;DHT22;61938;48.652;9.292;2022-07-29T09:34:21;24.30;99.90
73643;DHT22;61938;48.652;9.292;2022-07-29T09:36:49;24.40;99.90
73643;DHT22;61938;48.652;9.292;2022-07-29T09:39:26;24.40;99.90
73643;DHT22;61938;48.652;9.292;2022-07-29T09:41:55;24.70;99.90
73643;DHT22;61938;48.652;9.292;2022-07-29T09:44:22;24.80;99.90
73643;DHT22;61938;48.652;9.292;2022-07-29T09:47:04;24.90;99.90
73643;DHT22;61938;48.652;9.292;2022-07-29T09:49:35;24.90;99.90
73643;DHT22;61938;48.652;9.292;2022-07-29T09:52:05;24.90;99.90
73643;DHT22;61938;48.652;9.292;2022-07-29T09:54:32;24.90;99.90
73643;DHT22;61938;48.652;9.292;2022-07-29T09:57:08;24.90;99.90
73643;DHT22;61938;48.652;9.292;2022-07-29T09:59:38;24.90;99.90
73643;DHT22;61938;48.652;9.292;2022-07-29T10:02:13;24.80;99.90
73643;DHT22;61938;48.652;9.292;2022-07-29T10:04:42;24.80;99.90
73643;DHT22;61938;48.652;9.292;2022-07-29T10:07:09;24.80;99.90
73643;DHT22;61938;48.652;9.292;2022-07-29T10:09:35;24.70;99.90
73643;DHT22;61938;48.652;9.292;2022-07-29T10:12:14;24.80;99.90
73643;DHT22;61938;48.652;9.292;2022-07-29T10:14:41;25.00;99.90
73643;DHT22;61938;48.652;9.292;2022-07-29T10:17:08;25.10;99.90
73643;DHT22;61938;48.652;9.292;2022-07-29T10:19:35;25.20;99.90
73643;DHT22;61938;48.652;9.292;2022-07-29T10:22:05;25.20;99.90
73643;DHT22;61938;48.652;9.292;2022-07-29T10:24:32;25.20;99.90
73643;DHT22;61938;48.652;9.292;2022-07-29T10:26:59;25.30;99.90
73643;DHT22;61938;48.652;9.292;2022-07-29T10:29:26;25.40;99.90
73643;DHT22;61938;48.652;9.292;2022-07-29T10:32:09;25.50;99.90
73643;DHT22;61938;48.652;9.292;2022-07-29T10:40:45;26.10;99.90
73643;DHT22;61938;48.652;9.292;2022-07-29T10:43:41;26.10;99.90
73643;DHT22;61938;48.652;9.292;2022-07-29T10:46:08;26.20;99.90
73643;DHT22;61938;48.652;9.292;2022-07-29T10:48:35;26.00;99.90
73643;DHT22;61938;48.652;9.292;2022-07-29T10:51:02;25.80;99.90
73643;DHT22;61938;48.652;9.292;2022-07-29T10:53:52;25.70;99.90
73643;DHT22;61938;48.652;9.292;2022-07-29T10:56:29;25.70;99.90
73643;DHT22;61938;48.652;9.292;2022-07-29T11:01:47;25.50;99.90
73643;DHT22;61938;48.652;9.292;2022-07-29T11:04:13;25.50;99.90
73643;DHT22;61938;48.652;9.292;2022-07-29T11:09:30;25.60;99.90
73643;DHT22;61938;48.652;9.292;2022-07-29T11:11:57;25.40;99.90
73643;DHT22;61938;48.652;9.292;2022-07-29T11:14:57;25.30;99.90
73643;DHT22;61938;48.652;9.292;2022-07-29T11:17:24;25.10;99.90
73643;DHT22;61938;48.652;9.292;2022-07-29T11:19:50;25.00;99.90
73643;DHT22;61938;48.652;9.292;2022-07-29T11:22:36;25.00;99.90
73643;DHT22;61938;48.652;9.292;2022-07-29T11:25:16;25.00;99.90
73643;DHT22;61938;48.652;9.292;2022-07-29T11:27:42;25.00;99.90
73643;DHT22;61938;48.652;9.292;2022-07-29T11:30:09;24.90;99.90
73643;DHT22;61938;48.652;9.292;2022-07-29T11:32:39;24.80;99.90
73643;DHT22;61938;48.652;9.292;2022-07-29T11:35:20;24.20;99.90
73643;DHT22;61938;48.652;9.292;2022-07-29T11:43:49;22.30;99.90
73643;DHT22;61938;48.652;9.292;2022-07-29T11:46:41;21.80;99.90
73643;DHT22;61938;48.652;9.292;2022-07-29T11:49:04;21.60;99.90
73643;DHT22;61938;48.652;9.292;2022-07-29T11:51:30;21.40;99.90
73643;DHT22;61938;48.652;9.292;2022-07-29T11:53:57;21.20;99.90
73643;DHT22;61938;48.652;9.292;2022-07-29T11:56:26;20.80;99.90
73643;DHT22;61938;48.652;9.292;2022-07-29T11:59:06;20.60;99.90
73643;DHT22;61938;48.652;9.292;2022-07-29T12:01:34;20.30;99.90
73643;DHT22;61938;48.652;9.292;2022-07-29T12:04:07;20.10;99.90
73643;DHT22;61938;48.652;9.292;2022-07-29T12:06:34;20.10;99.90
73643;DHT22;61938;48.652;9.292;2022-07-29T12:09:00;20.20;99.90
73643;DHT22;61938;48.652;9.292;2022-07-29T12:11:26;20.40;99.90
73643;DHT22;61938;48.652;9.292;2022-07-29T12:13:52;20.60;99.90
73643;DHT22;61938;48.652;9.292;2022-07-29T12:16:20;20.70;99.90
73643;DHT22;61938;48.652;9.292;2022-07-29T12:19:15;20.80;99.90
73643;DHT22;61938;48.652;9.292;2022-07-29T12:21:49;20.80;99.90
73643;DHT22;61938;48.652;9.292;2022-07-29T12:24:15;20.80;99.90
73643;DHT22;61938;48.652;9.292;2022-07-29T12:26:58;20.80;99.90
73643;DHT22;61938;48.652;9.292;2022-07-29T12:29:25;20.80;99.90
73643;DHT22;61938;48.652;9.292;2022-07-29T12:31:53;20.80;99.90
73643;DHT22;61938;48.652;9.292;2022-07-29T12:34:22;20.70;99.90
73643;DHT22;61938;48.652;9.292;2022-07-29T12:36:48;20.60;99.90
73643;DHT22;61938;48.652;9.292;2022-07-29T12:39:18;20.30;99.90
73643;DHT22;61938;48.652;9.292;2022-07-29T12:41:44;20.10;99.90
73643;DHT22;61938;48.652;9.292;2022-07-29T12:44:10;19.80;99.90
73643;DHT22;61938;48.652;9.292;2022-07-29T12:46:37;19.60;99.90
73643;DHT22;61938;48.652;9.292;2022-07-29T12:49:03;19.50;99.90
73643;DHT22;61938;48.652;9.292;2022-07-29T12:51:37;19.40;99.90
73643;DHT22;61938;48.652;9.292;2022-07-29T12:54:11;19.50;99.90
73643;DHT22;61938;48.652;9.292;2022-07-29T12:56:39;19.50;99.90
73643;DHT22;61938;48.652;9.292;2022-07-29T12:59:31;19.40;99.90
73643;DHT22;61938;48.652;9.292;2022-07-29T13:01:57;19.30;99.90
73643;DHT22;61938;48.652;9.292;2022-07-29T13:04:32;19.20;99.90
73643;DHT22;61938;48.652;9.292;2022-07-29T13:07:06;19.20;99.90
73643;DHT22;61938;48.652;9.292;2022-07-29T13:09:43;19.10;99.90
73643;DHT22;61938;48.652;9.292;2022-07-29T13:12:12;19.30;99.90
73643;DHT22;61938;48.652;9.292;2022-07-29T13:14:43;19.50;99.90
73643;DHT22;61938;48.652;9.292;2022-07-29T13:17:11;19.70;99.90
73643;DHT22;61938;48.652;9.292;2022-07-29T13:19:40;19.70;99.90
73643;DHT22;61938;48.652;9.292;2022-07-29T13:22:13;19.80;99.90
73643;DHT22;61938;48.652;9.292;2022-07-29T13:27:16;20.00;99.90
73643;DHT22;61938;48.652;9.292;2022-07-29T13:29:42;20.00;99.90
73643;DHT22;61938;48.652;9.292;2022-07-29T13:32:08;20.00;99.90
73643;DHT22;61938;48.652;9.292;2022-07-29T13:34:34;20.00;99.90
73643;DHT22;61938;48.652;9.292;2022-07-29T13:37:00;19.90;99.90
73643;DHT22;61938;48.652;9.292;2022-07-29T13:39:25;19.90;99.90
73643;DHT22;61938;48.652;9.292;2022-07-29T13:41:51;19.90;99.90
73643;DHT22;61938;48.652;9.292;2022-07-29T13:44:17;19.90;99.90
73643;DHT22;61938;48.652;9.292;2022-07-29T13:46:43;19.90;99.90
73643;DHT22;61938;48.652;9.292;2022-07-29T13:49:09;19.90;99.90
73643;DHT22;61938;48.652;9.292;2022-07-29T13:51:37;19.90;99.90
73643;DHT22;61938;48.652;9.292;2022-07-29T13:54:03;19.80;99.90
73643;DHT22;61938;48.652;9.292;2022-07-29T13:56:29;19.80;99.90
73643;DHT22;61938;48.652;9.292;2022-07-29T13:58:55;19.80;99.90
73643;DHT22;61938;48.652;9.292;2022-07-29T14:01:21;19.90;99.90
73643;DHT22;61938;48.652;9.292;2022-07-29T14:03:47;19.90;99.90
73643;DHT22;61938;48.652;9.292;2022-07-29T14:06:12;20.00;99.90
73643;DHT22;61938;48.652;9.292;2022-07-29T14:08:38;20.10;99.90
73643;DHT22;61938;48.652;9.292;2022-07-29T14:11:05;20.20;99.90
73643;DHT22;61938;48.652;9.292;2022-07-29T14:13:31;20.20;99.90
73643;DHT22;61938;48.652;9.292;2022-07-29T14:15:57;20.20;99.90
73643;DHT22;61938;48.652;9.292;2022-07-29T14:18:22;20.30;99.90
73643;DHT22;61938;48.652;9.292;2022-07-29T14:20:48;20.30;99.90
73643;DHT22;61938;48.652;9.292;2022-07-29T14:23:14;20.30;99.90
73643;DHT22;61938;48.652;9.292;2022-07-29T14:25:40;20.30;99.90
73643;DHT22;61938;48.652;9.292;2022-07-29T14:28:05;20.40;99.90
73643;DHT22;61938;48.652;9.292;2022-07-29T14:30:31;20.50;99.90
73643;DHT22;61938;48.652;9.292;2022-07-29T14:32:57;20.50;99.90
73643;DHT22;61938;48.652;9.292;2022-07-29T14:35:23;20.50;99.90
73643;DHT22;61938;48.652;9.292;2022-07-29T14:37:48;20.50;99.90
73643;DHT22;61938;48.652;9.292;2022-07-29T14:40:14;20.60;99.90
73643;DHT22;61938;48.652;9.292;2022-07-29T14:42:40;20.60;99.90
73643;DHT22;61938;48.652;9.292;2022-07-29T14:45:08;20.50;99.90
73643;DHT22;61938;48.652;9.292;2022-07-29T14:47:35;20.50;99.90
73643;DHT22;61938;48.652;9.292;2022-07-29T14:50:01;20.60;99.90
73643;DHT22;61938;48.652;9.292;2022-07-29T14:52:27;20.60;99.90
73643;DHT22;61938;48.652;9.292;2022-07-29T14:54:53;20.70;99.90
73643;DHT22;61938;48.652;9.292;2022-07-29T14:57:19;20.70;99.90
73643;DHT22;61938;48.652;9.292;2022-07-29T14:59:45;20.70;99.90
73643;DHT22;61938;48.652;9.292;2022-07-29T15:02:10;20.70;99.90
73643;DHT22;61938;48.652;9.292;2022-07-29T15:04:36;20.70;99.90
73643;DHT22;61938;48.652;9.292;2022-07-29T15:07:02;20.70;99.90
73643;DHT22;61938;48.652;9.292;2022-07-29T15:09:28;20.70;99.90
73643;DHT22;61938;48.652;9.292;2022-07-29T15:11:54;20.70;99.90
73643;DHT22;61938;48.652;9.292;2022-07-29T15:14:20;20.70;99.90
73643;DHT22;61938;48.652;9.292;2022-07-29T15:16:45;20.70;99.90
73643;DHT22;61938;48.652;9.292;2022-07-29T15:19:11;20.70;99.90
73643;DHT22;61938;48.652;9.292;2022-07-29T15:21:38;20.80;99.90
73643;DHT22;61938;48.652;9.292;2022-07-29T15:24:04;20.70;99.90
73643;DHT22;61938;48.652;9.292;2022-07-29T15:26:30;20.70;99.90
73643;DHT22;61938;48.652;9.292;2022-07-29T15:28:55;20.70;99.90
73643;DHT22;61938;48.652;9.292;2022-07-29T15:31:21;20.60;99.90
73643;DHT22;61938;48.652;9.292;2022-07-29T15:33:47;20.60;99.90
73643;DHT22;61938;48.652;9.292;2022-07-29T15:36:13;20.70;99.90
73643;DHT22;61938;48.652;9.292;2022-07-29T15:38:39;20.70;99.90
73643;DHT22;61938;48.652;9.292;2022-07-29T15:41:06;20.70;99.90
73643;DHT22;61938;48.652;9.292;2022-07-29T15:43:32;20.80;99.90
73643;DHT22;61938;48.652;9.292;2022-07-29T15:46:01;20.80;99.90
73643;DHT22;61938;48.652;9.292;2022-07-29T15:48:45;20.80;99.90
73643;DHT22;61938;48.652;9.292;2022-07-29T15:51:11;20.90;99.90
73643;DHT22;61938;48.652;9.292;2022-07-29T15:53:37;20.90;99.90
73643;DHT22;61938;48.652;9.292;2022-07-29T15:56:03;20.90;99.90
73643;DHT22;61938;48.652;9.292;2022-07-29T15:58:29;20.90;99.90
73643;DHT22;61938;48.652;9.292;2022-07-29T16:00:55;20.90;99.90
73643;DHT22;61938;48.652;9.292;2022-07-29T16:03:20;21.00;99.90